ROMMA est une association bénévole à but non lucratif. Votre soutien est indispensable : ADHERER à ROMMA ou FAIRE un DON

Nice - (06, Alpes-Maritimes)

Côte-d'Azur (190 m)   Longitude: 07° 14' E   Latitude: 43° 43' N Station partenaire n°136
 

Détail journalier du     <<     >>

Température Precipitation Humidité Pression Vent Dir Rafale Dir. rafale Ensol.
Heure (°C) (mm) (%) (hPa) (km/h) (km/h) (min)
01:00 15.208610203NNE8N0
02:00 14.508510204N11NNE0
03:00 14.708410214N8NNE0
04:00 15.108410214NNO8N0
05:00 14.908410214NNO8NNO0
06:00 14.708210214NNO8NNO0
07:00 14.408010214NNO11NNO0
08:00 14.707210225N18NNO0
09:00 15.806910226NNO16NNO20
10:00 18.705910234NNE11NNE60
11:00 20.107110246SE15SE60
12:00 21.007010249SSE21SSE60
13:00 20.6072102411SE19SSE60
14:00 20.4066102310SSE23SSE60
15:00 19.9068102312SE24SE60
16:00 20.206510229SSE21SSE60
17:00 19.207010228SSE16SSE60
18:00 17.907610227SSE16SSE10
19:00 16.907910225SE15SSE0
20:00 16.1082102306SE0
21:00 15.7084102300---0
22:00 15.6085102300---0
23:00 15.1086102402---0
minuit 14.108910241NNE8NNE0

Graphique du 11-10-2019

 

Serveur OMMA